sensor_id;sensor_type;location;lat;lon;timestamp;pressure;altitude;pressure_sealevel;temperature;humidity
86212;BME280;76867;47.634;8.270;2024-03-08T00:02:10;97579.88;;;1.91;84.06
86212;BME280;76867;47.634;8.270;2024-03-08T00:12:10;97588.44;;;1.93;84.45
86212;BME280;76867;47.634;8.270;2024-03-08T00:22:10;97580.75;;;2.00;84.82
86212;BME280;76867;47.634;8.270;2024-03-08T00:32:11;97572.78;;;2.09;85.00
86212;BME280;76867;47.634;8.270;2024-03-08T00:42:11;97560.84;;;2.24;84.83
86212;BME280;76867;47.634;8.270;2024-03-08T00:52:12;97554.28;;;2.16;84.71
86212;BME280;76867;47.634;8.270;2024-03-08T01:02:12;97540.56;;;2.04;84.71
86212;BME280;76867;47.634;8.270;2024-03-08T01:12:12;97529.25;;;1.93;85.35
86212;BME280;76867;47.634;8.270;2024-03-08T01:22:13;97513.50;;;2.00;85.54
86212;BME280;76867;47.634;8.270;2024-03-08T01:32:14;97515.19;;;1.96;84.94
86212;BME280;76867;47.634;8.270;2024-03-08T01:42:14;97504.72;;;1.95;85.15
86212;BME280;76867;47.634;8.270;2024-03-08T01:52:18;97493.03;;;1.99;85.33
86212;BME280;76867;47.634;8.270;2024-03-08T02:02:22;97489.94;;;2.06;85.64
86212;BME280;76867;47.634;8.270;2024-03-08T02:12:23;97463.19;;;2.10;85.87
86212;BME280;76867;47.634;8.270;2024-03-08T02:22:23;97446.94;;;2.15;85.43
86212;BME280;76867;47.634;8.270;2024-03-08T02:32:23;97451.72;;;2.18;86.12
86212;BME280;76867;47.634;8.270;2024-03-08T02:42:24;97441.00;;;2.27;86.24
86212;BME280;76867;47.634;8.270;2024-03-08T02:52:24;97424.59;;;2.37;86.04
86212;BME280;76867;47.634;8.270;2024-03-08T03:02:25;97417.31;;;2.37;85.99
86212;BME280;76867;47.634;8.270;2024-03-08T03:12:30;97412.75;;;2.46;86.19
86212;BME280;76867;47.634;8.270;2024-03-08T03:22:30;97411.69;;;2.56;85.93
86212;BME280;76867;47.634;8.270;2024-03-08T03:32:30;97412.97;;;2.67;86.14
86212;BME280;76867;47.634;8.270;2024-03-08T03:42:31;97402.84;;;3.13;81.95
86212;BME280;76867;47.634;8.270;2024-03-08T03:52:31;97392.09;;;3.48;78.47
86212;BME280;76867;47.634;8.270;2024-03-08T04:02:31;97383.88;;;3.53;77.54
86212;BME280;76867;47.634;8.270;2024-03-08T04:12:33;97386.88;;;3.51;77.71
86212;BME280;76867;47.634;8.270;2024-03-08T04:22:37;97385.28;;;3.59;76.75
86212;BME280;76867;47.634;8.270;2024-03-08T04:32:38;97378.91;;;3.46;77.30
86212;BME280;76867;47.634;8.270;2024-03-08T04:42:39;97373.38;;;3.43;77.01
86212;BME280;76867;47.634;8.270;2024-03-08T04:52:40;97367.03;;;3.39;77.05
86212;BME280;76867;47.634;8.270;2024-03-08T05:02:41;97364.50;;;3.33;77.24
86212;BME280;76867;47.634;8.270;2024-03-08T05:12:41;97360.84;;;3.38;76.56
86212;BME280;76867;47.634;8.270;2024-03-08T05:22:42;97355.75;;;3.28;77.24
86212;BME280;76867;47.634;8.270;2024-03-08T05:32:42;97358.16;;;3.38;77.43
86212;BME280;76867;47.634;8.270;2024-03-08T05:42:44;97352.44;;;3.31;77.19
86212;BME280;76867;47.634;8.270;2024-03-08T05:52:45;97355.44;;;3.29;76.44
86212;BME280;76867;47.634;8.270;2024-03-08T06:02:45;97348.16;;;3.39;75.87
86212;BME280;76867;47.634;8.270;2024-03-08T06:12:45;97338.16;;;3.30;77.00
86212;BME280;76867;47.634;8.270;2024-03-08T06:22:46;97350.22;;;3.50;75.55
86212;BME280;76867;47.634;8.270;2024-03-08T06:32:46;97333.41;;;3.45;75.24
86212;BME280;76867;47.634;8.270;2024-03-08T06:42:46;97338.94;;;3.66;74.44
86212;BME280;76867;47.634;8.270;2024-03-08T06:52:47;97332.25;;;3.63;75.06
86212;BME280;76867;47.634;8.270;2024-03-08T07:02:50;97330.84;;;4.30;72.87
86212;BME280;76867;47.634;8.270;2024-03-08T07:12:53;97320.09;;;4.21;71.29
86212;BME280;76867;47.634;8.270;2024-03-08T07:22:54;97314.22;;;4.11;71.96
86212;BME280;76867;47.634;8.270;2024-03-08T07:32:54;97311.28;;;4.33;71.05
86212;BME280;76867;47.634;8.270;2024-03-08T07:42:55;97314.53;;;4.18;71.42
86212;BME280;76867;47.634;8.270;2024-03-08T07:52:55;97318.84;;;4.10;72.37
86212;BME280;76867;47.634;8.270;2024-03-08T08:02:55;97309.97;;;4.10;72.18
86212;BME280;76867;47.634;8.270;2024-03-08T08:12:56;97292.28;;;4.21;71.08
86212;BME280;76867;47.634;8.270;2024-03-08T08:22:57;97292.34;;;4.42;70.75
86212;BME280;76867;47.634;8.270;2024-03-08T08:32:59;97287.00;;;4.63;69.71
86212;BME280;76867;47.634;8.270;2024-03-08T08:43:00;97277.78;;;4.64;68.92
86212;BME280;76867;47.634;8.270;2024-03-08T08:53:01;97280.84;;;5.25;66.89
86212;BME280;76867;47.634;8.270;2024-03-08T09:03:01;97274.97;;;5.44;67.23
86212;BME280;76867;47.634;8.270;2024-03-08T09:13:02;97272.97;;;5.53;65.92
86212;BME280;76867;47.634;8.270;2024-03-08T09:23:04;97237.13;;;5.56;65.63
86212;BME280;76867;47.634;8.270;2024-03-08T09:33:05;97232.88;;;5.34;66.52
86212;BME280;76867;47.634;8.270;2024-03-08T09:43:05;97227.84;;;5.91;64.67
86212;BME280;76867;47.634;8.270;2024-03-08T09:53:06;97216.06;;;6.20;64.26
86212;BME280;76867;47.634;8.270;2024-03-08T10:03:08;97210.94;;;5.94;65.12
86212;BME280;76867;47.634;8.270;2024-03-08T10:13:10;97207.91;;;6.57;62.42
86212;BME280;76867;47.634;8.270;2024-03-08T10:23:12;97191.16;;;6.67;62.32
86212;BME280;76867;47.634;8.270;2024-03-08T10:33:13;97179.00;;;7.45;60.07
86212;BME280;76867;47.634;8.270;2024-03-08T10:43:19;97173.13;;;7.43;59.63
86212;BME280;76867;47.634;8.270;2024-03-08T10:53:26;97162.06;;;7.64;57.79
86212;BME280;76867;47.634;8.270;2024-03-08T11:13:44;97148.28;;;7.41;57.91
86212;BME280;76867;47.634;8.270;2024-03-08T11:24:02;97142.69;;;7.50;60.14
86212;BME280;76867;47.634;8.270;2024-03-08T11:34:15;97113.88;;;7.45;58.72
86212;BME280;76867;47.634;8.270;2024-03-08T11:44:16;97123.16;;;7.60;60.12
86212;BME280;76867;47.634;8.270;2024-03-08T11:54:17;97098.34;;;8.09;58.77
86212;BME280;76867;47.634;8.270;2024-03-08T12:04:17;97082.38;;;8.07;57.45
86212;BME280;76867;47.634;8.270;2024-03-08T12:14:18;97067.75;;;8.31;57.86
86212;BME280;76867;47.634;8.270;2024-03-08T12:24:18;97043.84;;;8.21;58.16
86212;BME280;76867;47.634;8.270;2024-03-08T12:34:19;97023.31;;;8.24;58.49
86212;BME280;76867;47.634;8.270;2024-03-08T12:44:20;97021.31;;;8.56;56.91
86212;BME280;76867;47.634;8.270;2024-03-08T12:54:23;97000.09;;;8.65;56.64
86212;BME280;76867;47.634;8.270;2024-03-08T13:04:23;96981.34;;;8.60;57.57
86212;BME280;76867;47.634;8.270;2024-03-08T13:14:25;96945.41;;;8.93;56.96
86212;BME280;76867;47.634;8.270;2024-03-08T13:24:26;96921.88;;;9.05;57.43
86212;BME280;76867;47.634;8.270;2024-03-08T13:34:26;96904.16;;;9.41;56.28
86212;BME280;76867;47.634;8.270;2024-03-08T13:44:29;96893.09;;;8.81;56.72
86212;BME280;76867;47.634;8.270;2024-03-08T13:54:30;96887.16;;;9.21;55.46
86212;BME280;76867;47.634;8.270;2024-03-08T14:04:31;96878.50;;;9.15;56.76
86212;BME280;76867;47.634;8.270;2024-03-08T14:14:31;96865.72;;;9.19;56.13
86212;BME280;76867;47.634;8.270;2024-03-08T14:24:34;96855.19;;;8.91;57.54
86212;BME280;76867;47.634;8.270;2024-03-08T14:34:35;96837.41;;;9.54;56.50
86212;BME280;76867;47.634;8.270;2024-03-08T14:44:35;96821.16;;;9.31;54.63
86212;BME280;76867;47.634;8.270;2024-03-08T14:54:38;96836.81;;;9.11;55.01
86212;BME280;76867;47.634;8.270;2024-03-08T15:04:38;96834.59;;;8.44;56.62
86212;BME280;76867;47.634;8.270;2024-03-08T15:14:41;96815.19;;;8.23;57.56
86212;BME280;76867;47.634;8.270;2024-03-08T15:24:44;96796.94;;;8.69;54.48
86212;BME280;76867;47.634;8.270;2024-03-08T15:34:44;96771.72;;;8.72;55.46
86212;BME280;76867;47.634;8.270;2024-03-08T15:44:45;96789.63;;;9.27;54.17
86212;BME280;76867;47.634;8.270;2024-03-08T15:54:45;96774.13;;;8.51;56.84
86212;BME280;76867;47.634;8.270;2024-03-08T16:04:46;96751.16;;;8.25;58.58
86212;BME280;76867;47.634;8.270;2024-03-08T16:14:46;96735.09;;;7.94;58.44
86212;BME280;76867;47.634;8.270;2024-03-08T16:24:47;96722.88;;;7.61;59.55
86212;BME280;76867;47.634;8.270;2024-03-08T16:34:50;96710.63;;;7.28;61.40
86212;BME280;76867;47.634;8.270;2024-03-08T16:44:51;96701.53;;;7.21;62.04
86212;BME280;76867;47.634;8.270;2024-03-08T16:54:51;96697.47;;;7.11;62.92
86212;BME280;76867;47.634;8.270;2024-03-08T17:04:52;96703.84;;;6.99;63.56
86212;BME280;76867;47.634;8.270;2024-03-08T17:14:52;96702.44;;;6.70;65.15
86212;BME280;76867;47.634;8.270;2024-03-08T17:24:53;96705.28;;;6.42;65.89
86212;BME280;76867;47.634;8.270;2024-03-08T17:34:54;96710.03;;;6.29;66.67
86212;BME280;76867;47.634;8.270;2024-03-08T17:44:54;96712.06;;;6.32;66.57
86212;BME280;76867;47.634;8.270;2024-03-08T17:54:59;96705.03;;;6.47;65.85
86212;BME280;76867;47.634;8.270;2024-03-08T18:04:59;96710.56;;;6.19;67.95
86212;BME280;76867;47.634;8.270;2024-03-08T18:15:00;96714.09;;;6.03;69.34
86212;BME280;76867;47.634;8.270;2024-03-08T18:25:01;96723.25;;;5.99;70.11
86212;BME280;76867;47.634;8.270;2024-03-08T18:35:03;96730.22;;;6.16;66.94
86212;BME280;76867;47.634;8.270;2024-03-08T18:45:03;96726.72;;;5.99;70.01
86212;BME280;76867;47.634;8.270;2024-03-08T18:55:10;96714.75;;;5.84;70.57
86212;BME280;76867;47.634;8.270;2024-03-08T19:05:16;96700.41;;;5.84;71.02
86212;BME280;76867;47.634;8.270;2024-03-08T19:15:18;96692.72;;;5.70;71.68
86212;BME280;76867;47.634;8.270;2024-03-08T19:25:20;96690.63;;;5.64;72.48
86212;BME280;76867;47.634;8.270;2024-03-08T19:35:21;96694.97;;;5.68;71.75
86212;BME280;76867;47.634;8.270;2024-03-08T19:45:24;96703.19;;;5.56;72.34
86212;BME280;76867;47.634;8.270;2024-03-08T19:55:27;96705.81;;;5.52;72.61
86212;BME280;76867;47.634;8.270;2024-03-08T20:05:29;96689.91;;;5.51;72.40
86212;BME280;76867;47.634;8.270;2024-03-08T20:15:30;96695.56;;;5.46;73.18
86212;BME280;76867;47.634;8.270;2024-03-08T20:25:31;96688.97;;;5.59;72.72
86212;BME280;76867;47.634;8.270;2024-03-08T20:35:33;96685.69;;;5.37;73.75
86212;BME280;76867;47.634;8.270;2024-03-08T20:45:34;96692.19;;;5.21;74.92
86212;BME280;76867;47.634;8.270;2024-03-08T20:55:35;96688.47;;;5.25;74.77
86212;BME280;76867;47.634;8.270;2024-03-08T21:05:35;96686.50;;;5.10;75.42
86212;BME280;76867;47.634;8.270;2024-03-08T21:15:36;96689.38;;;5.01;75.87
86212;BME280;76867;47.634;8.270;2024-03-08T21:25:37;96707.63;;;4.92;75.79
86212;BME280;76867;47.634;8.270;2024-03-08T21:35:39;96705.97;;;4.87;76.39
86212;BME280;76867;47.634;8.270;2024-03-08T21:45:40;96710.91;;;4.85;75.94
86212;BME280;76867;47.634;8.270;2024-03-08T21:55:41;96711.06;;;4.77;76.50
86212;BME280;76867;47.634;8.270;2024-03-08T22:05:41;96725.25;;;4.74;76.42
86212;BME280;76867;47.634;8.270;2024-03-08T22:15:41;96730.19;;;4.71;76.73
86212;BME280;76867;47.634;8.270;2024-03-08T22:25:45;96729.41;;;4.71;77.35
86212;BME280;76867;47.634;8.270;2024-03-08T22:35:46;96735.50;;;4.68;77.81
86212;BME280;76867;47.634;8.270;2024-03-08T22:45:46;96728.72;;;4.74;77.47
86212;BME280;76867;47.634;8.270;2024-03-08T22:55:49;96754.66;;;4.63;77.55
86212;BME280;76867;47.634;8.270;2024-03-08T23:05:52;96764.66;;;4.50;78.52
86212;BME280;76867;47.634;8.270;2024-03-08T23:15:52;96771.31;;;4.53;79.35
86212;BME280;76867;47.634;8.270;2024-03-08T23:25:52;96773.00;;;4.57;78.92
86212;BME280;76867;47.634;8.270;2024-03-08T23:35:53;96772.78;;;4.50;79.71
86212;BME280;76867;47.634;8.270;2024-03-08T23:45:54;96771.53;;;4.47;80.21
86212;BME280;76867;47.634;8.270;2024-03-08T23:55:56;96761.53;;;4.48;78.59
